createdAt,value
2022-10-29T00:02:03.163Z,100616.66
2022-10-29T00:04:30.286Z,100688.63
2022-10-29T00:06:57.620Z,100685.19
2022-10-29T00:09:24.721Z,100691.28
2022-10-29T00:11:52.003Z,100685.22
2022-10-29T00:14:19.111Z,100681.78
2022-10-29T00:16:46.205Z,100673.13
2022-10-29T00:19:13.305Z,100669.66
2022-10-29T00:27:09.841Z,100651.84
2022-10-29T00:29:37.296Z,100657.88
2022-10-29T00:34:49.112Z,100672.34
2022-10-29T00:37:16.252Z,100676.72
2022-10-29T00:42:27.911Z,100661.13
2022-10-29T00:44:55.151Z,100650.81
2022-10-29T00:47:26.574Z,100662.78
2022-10-29T00:50:04.060Z,100659.31
2022-10-29T00:52:34.010Z,100648.94
2022-10-29T00:55:05.877Z,100651.53
2022-10-29T00:57:43.045Z,100618.03
2022-10-29T01:00:10.841Z,100649.75
2022-10-29T01:05:26.105Z,100652.31
2022-10-29T01:07:53.353Z,100638.53
2022-10-29T01:10:32.208Z,100633.31
2022-10-29T01:15:58.508Z,100619.38
2022-10-29T01:21:36.761Z,100616.91
2022-10-29T01:30:35.262Z,100633.31
2022-10-29T01:33:16.844Z,100621.31
2022-10-29T01:35:56.163Z,100616.25
2022-10-29T01:38:31.484Z,100599.09
2022-10-29T01:41:40.715Z,100642.88
2022-10-29T01:47:17.145Z,100613.03
2022-10-29T01:49:50.033Z,100653.41
2022-10-29T01:55:04.339Z,100645.69
2022-10-29T01:57:39.392Z,100637.84
2022-10-29T02:00:10.312Z,100621.59
2022-10-29T02:02:48.074Z,100638.78
2022-10-29T02:05:50.473Z,100625.06
2022-10-29T02:08:36.396Z,100618.06
2022-10-29T02:11:18.394Z,100612.00
2022-10-29T02:13:52.354Z,100611.19
2022-10-29T02:16:20.523Z,100628.56
2022-10-29T02:18:49.552Z,100613.03
2022-10-29T02:21:18.421Z,100625.22
2022-10-29T02:23:45.934Z,100645.94
2022-10-29T02:26:14.067Z,100627.72
2022-10-29T02:31:25.586Z,100586.56
2022-10-29T02:33:52.650Z,100548.72
2022-10-29T02:36:20.214Z,100593.50
2022-10-29T02:38:47.598Z,100620.09
2022-10-29T02:41:14.787Z,100595.31
2022-10-29T02:51:55.191Z,100616.78
2022-10-29T02:54:22.421Z,100610.03
2022-10-29T02:56:49.670Z,100618.63
2022-10-29T02:59:16.916Z,100623.81
2022-10-29T03:01:44.229Z,100571.53
2022-10-29T03:04:12.185Z,100623.00
2022-10-29T03:06:39.482Z,100630.84
2022-10-29T03:11:51.421Z,100629.19
2022-10-29T03:14:18.741Z,100628.41
2022-10-29T03:16:46.120Z,100616.31
2022-10-29T03:19:13.353Z,100615.53
2022-10-29T03:21:40.643Z,100617.09
2022-10-29T03:24:07.961Z,100622.31
2022-10-29T03:26:35.087Z,100603.56
2022-10-29T03:29:02.337Z,100626.78
2022-10-29T03:31:29.689Z,100631.06
2022-10-29T03:33:56.757Z,100618.97
2022-10-29T03:36:24.196Z,100569.31
2022-10-29T03:38:51.475Z,100619.16
2022-10-29T03:44:02.964Z,100633.66
2022-10-29T03:46:30.138Z,100619.19
2022-10-29T03:48:57.481Z,100636.31
2022-10-29T03:51:24.729Z,100638.91
2022-10-29T03:53:51.795Z,100608.06
2022-10-29T03:56:19.115Z,100613.22
2022-10-29T03:58:46.231Z,100622.78
2022-10-29T04:03:58.071Z,100600.31
2022-10-29T04:06:25.130Z,100594.34
2022-10-29T04:08:52.162Z,100638.19
2022-10-29T04:11:19.443Z,100628.81
2022-10-29T04:13:46.695Z,100645.19
2022-10-29T04:28:17.814Z,100655.75
2022-10-29T04:30:04.887Z,100663.38
2022-10-29T04:32:31.922Z,100672.88
2022-10-29T04:37:43.596Z,100640.22
2022-10-29T04:40:11.021Z,100665.09
2022-10-29T04:42:39.465Z,100665.09
2022-10-29T04:45:08.060Z,100662.50
2022-10-29T04:47:35.162Z,100668.53
2022-10-29T04:50:02.193Z,100620.44
2022-10-29T04:52:29.276Z,100660.78
2022-10-29T04:54:56.581Z,100668.53
2022-10-29T04:57:23.831Z,100568.03
2022-10-29T04:59:51.012Z,100597.25
2022-10-29T05:02:18.376Z,100616.19
2022-10-29T05:04:45.624Z,100657.28
2022-10-29T05:07:12.864Z,100672.81
2022-10-29T05:09:40.020Z,100666.78
2022-10-29T05:12:07.861Z,100665.81
2022-10-29T05:14:35.135Z,100619.47
2022-10-29T05:17:02.307Z,100674.53
2022-10-29T05:19:29.631Z,100638.41
2022-10-29T05:21:56.915Z,100662.41
2022-10-29T05:24:24.124Z,100659.03
2022-10-29T05:26:51.375Z,100666.03
2022-10-29T05:29:18.436Z,100606.88
2022-10-29T05:31:45.515Z,100684.13
2022-10-29T05:34:12.640Z,100679.81
2022-10-29T05:36:39.861Z,100583.66
2022-10-29T05:39:07.062Z,100685.88
2022-10-29T05:41:34.145Z,100696.28
2022-10-29T05:44:01.512Z,100694.53
2022-10-29T05:46:28.762Z,100673.13
2022-10-29T05:48:56.141Z,100678.28
2022-10-29T05:51:23.412Z,100686.84
2022-10-29T05:53:50.930Z,100697.19
2022-10-29T05:56:18.121Z,100707.56
2022-10-29T05:58:45.471Z,100698.03
2022-10-29T06:01:12.895Z,100681.72
2022-10-29T06:06:25.122Z,100711.03
2022-10-29T06:08:52.483Z,100720.47
2022-10-29T06:11:19.673Z,100700.84
2022-10-29T06:13:46.928Z,100712.81
2022-10-29T06:18:58.751Z,100738.56
2022-10-29T06:21:26.001Z,100729.97
2022-10-29T06:23:54.563Z,100724.72
2022-10-29T06:26:21.940Z,100734.16
2022-10-29T06:28:49.140Z,100739.31
2022-10-29T06:31:16.472Z,100732.41
2022-10-29T06:33:43.843Z,100738.50
2022-10-29T06:36:11.163Z,100739.25
2022-10-29T06:38:38.260Z,100746.16
2022-10-29T06:41:06.074Z,100745.25
2022-10-29T06:43:33.234Z,100716.00
2022-10-29T06:46:00.355Z,100693.84
2022-10-29T06:48:27.581Z,100743.44
2022-10-29T06:50:54.863Z,100753.81
2022-10-29T06:53:21.951Z,100731.50
2022-10-29T06:58:33.964Z,100744.22
2022-10-29T07:01:01.613Z,100746.78
2022-10-29T07:03:28.879Z,100737.22
2022-10-29T07:05:57.976Z,100730.31
2022-10-29T07:11:09.721Z,100741.50
2022-10-29T07:13:37.266Z,100733.72
2022-10-29T07:16:04.529Z,100732.88
2022-10-29T07:18:33.222Z,100696.81
2022-10-29T07:21:02.916Z,100738.81
2022-10-29T07:26:02.960Z,100745.81
2022-10-29T07:28:30.066Z,100739.72
2022-10-29T07:36:32.454Z,100744.78
2022-10-29T07:38:59.717Z,100672.56
2022-10-29T07:44:11.614Z,100737.78
2022-10-29T07:49:23.315Z,100720.69
2022-10-29T07:51:50.732Z,100756.78
2022-10-29T07:54:17.794Z,100752.44
2022-10-29T07:56:47.622Z,100756.78
2022-10-29T08:02:00.500Z,100766.22
2022-10-29T08:04:27.705Z,100755.88
2022-10-29T08:06:55.088Z,100737.06
2022-10-29T08:09:22.242Z,100765.25
2022-10-29T08:11:49.619Z,100767.00
2022-10-29T08:14:18.888Z,100773.84
2022-10-29T08:16:47.451Z,100790.25
2022-10-29T08:19:14.571Z,100790.25
2022-10-29T08:21:41.727Z,100795.41
2022-10-29T08:24:10.653Z,100770.59
2022-10-29T08:26:37.977Z,100791.22
2022-10-29T08:29:05.535Z,100794.59
2022-10-29T08:31:32.897Z,100775.00
2022-10-29T08:34:00.170Z,100797.09
2022-10-29T08:39:12.095Z,100789.09
2022-10-29T08:42:05.322Z,100787.06
2022-10-29T08:44:54.280Z,100793.75
2022-10-29T08:47:23.810Z,100797.00
2022-10-29T08:50:31.240Z,100795.16
2022-10-29T08:53:22.288Z,100791.59
2022-10-29T08:55:47.426Z,100796.75
2022-10-29T08:58:29.803Z,100798.47
2022-10-29T09:00:59.162Z,100800.19
2022-10-29T09:03:32.423Z,100819.25
2022-10-29T09:09:12.341Z,100831.47
2022-10-29T09:12:01.541Z,100834.84
2022-10-29T09:14:57.378Z,100826.19
2022-10-29T09:17:39.531Z,100846.72
2022-10-29T09:20:15.481Z,100842.31
2022-10-29T09:23:11.893Z,100823.13
2022-10-29T09:25:47.991Z,100820.44
2022-10-29T09:28:25.401Z,100823.78
2022-10-29T09:31:16.872Z,100822.13
2022-10-29T09:33:48.610Z,100832.50
2022-10-29T09:36:19.852Z,100844.63
2022-10-29T09:41:45.121Z,100837.78
2022-10-29T09:44:26.012Z,100827.56
2022-10-29T09:49:50.135Z,100845.66
2022-10-29T09:52:23.400Z,100841.28
2022-10-29T09:54:53.271Z,100850.81
2022-10-29T10:00:26.430Z,100853.38
2022-10-29T10:03:13.305Z,100862.06
2022-10-29T10:06:03.437Z,100863.78
2022-10-29T10:08:32.286Z,100844.84
2022-10-29T10:11:05.066Z,100859.41
2022-10-29T10:13:38.896Z,100810.25
2022-10-29T10:16:07.109Z,100844.44
2022-10-29T10:18:34.411Z,100841.66
2022-10-29T10:21:11.381Z,100832.78
2022-10-29T10:23:46.756Z,100839.59
2022-10-29T10:26:34.025Z,100834.19
2022-10-29T10:29:16.775Z,100840.28
2022-10-29T10:31:55.854Z,100842.03
2022-10-29T10:34:32.758Z,100848.09
2022-10-29T10:37:19.326Z,100821.41
2022-10-29T10:40:02.050Z,100832.53
2022-10-29T10:42:34.682Z,100835.97
2022-10-29T10:45:05.866Z,100828.13
2022-10-29T10:47:36.564Z,100822.00
2022-10-29T10:50:28.588Z,100801.31
2022-10-29T10:52:58.995Z,100835.03
2022-10-29T10:55:39.035Z,100841.09
2022-10-29T10:58:23.207Z,100836.81
2022-10-29T11:01:22.842Z,100800.91
2022-10-29T11:04:19.525Z,100840.50
2022-10-29T11:06:52.472Z,100840.66
2022-10-29T11:09:37.573Z,100863.78
2022-10-29T11:15:15.864Z,100835.16
2022-10-29T11:18:12.499Z,100844.59
2022-10-29T11:20:43.802Z,100792.91
2022-10-29T11:23:44.082Z,100839.88
2022-10-29T11:26:21.096Z,100839.84
2022-10-29T11:28:58.622Z,100846.69
2022-10-29T11:31:52.601Z,100831.16
2022-10-29T11:37:43.367Z,100838.53
2022-10-29T11:40:23.437Z,100797.50
2022-10-29T11:42:50.887Z,100828.44
2022-10-29T11:45:37.466Z,100826.16
2022-10-29T11:48:10.747Z,100836.47
2022-10-29T11:50:53.552Z,100832.88
2022-10-29T11:53:43.149Z,100832.91
2022-10-29T11:56:40.615Z,100843.16
2022-10-29T11:59:30.990Z,100836.25
2022-10-29T12:02:08.173Z,100834.53
2022-10-29T12:04:42.436Z,100784.78
2022-10-29T12:07:43.057Z,100834.38
2022-10-29T12:10:18.832Z,100812.84
2022-10-29T12:16:31.356Z,100828.09
2022-10-29T12:19:27.799Z,100804.84
2022-10-29T12:22:46.207Z,100813.34
2022-10-29T12:25:20.796Z,100814.38
2022-10-29T12:27:56.635Z,100819.75
2022-10-29T12:33:27.668Z,100815.63
2022-10-29T12:36:22.911Z,100814.00
2022-10-29T12:38:58.028Z,100819.31
2022-10-29T12:44:44.952Z,100799.53
2022-10-29T12:47:34.082Z,100811.59
2022-10-29T12:50:34.760Z,100794.56
2022-10-29T12:53:16.701Z,100817.72
2022-10-29T12:55:46.985Z,100817.78
2022-10-29T12:58:46.462Z,100816.00
2022-10-29T13:01:57.282Z,100804.66
2022-10-29T13:04:32.612Z,100791.91
2022-10-29T13:07:06.538Z,100808.97
2022-10-29T13:09:36.323Z,100809.78
2022-10-29T13:12:26.044Z,100820.16
2022-10-29T13:15:01.336Z,100820.22
2022-10-29T13:17:31.867Z,100824.59
2022-10-29T13:20:07.507Z,100786.75
2022-10-29T13:31:20.999Z,100823.94
2022-10-29T13:33:48.306Z,100828.31
2022-10-29T13:36:19.333Z,100832.69
2022-10-29T13:39:05.798Z,100761.53
2022-10-29T13:44:28.142Z,100833.69
2022-10-29T13:47:15.425Z,100818.19
2022-10-29T13:49:50.248Z,100802.72
2022-10-29T13:52:22.889Z,100808.69
2022-10-29T13:55:07.457Z,100808.75
2022-10-29T13:57:51.188Z,100802.78
2022-10-29T14:00:22.560Z,100789.00
2022-10-29T14:03:04.880Z,100793.31
2022-10-29T14:05:34.746Z,100807.94
2022-10-29T14:08:31.284Z,100807.09
2022-10-29T14:11:01.206Z,100806.22
2022-10-29T14:16:20.795Z,100817.63
2022-10-29T14:21:38.972Z,100813.47
2022-10-29T14:24:09.586Z,100826.56
2022-10-29T14:26:39.837Z,100823.97
2022-10-29T14:29:26.347Z,100821.50
2022-10-29T14:32:18.717Z,100831.03
2022-10-29T14:34:51.174Z,100824.19
2022-10-29T14:37:39.380Z,100826.06
2022-10-29T14:40:21.865Z,100830.31
2022-10-29T14:42:54.312Z,100832.16
2022-10-29T14:45:29.987Z,100842.56
2022-10-29T14:48:10.568Z,100838.28
2022-10-29T14:50:37.949Z,100831.38
2022-10-29T14:53:19.355Z,100810.75
2022-10-29T14:55:49.073Z,100834.06
2022-10-29T14:58:28.236Z,100814.28
2022-10-29T15:01:09.547Z,100831.59
2022-10-29T15:03:37.026Z,100790.38
2022-10-29T15:06:18.150Z,100827.31
2022-10-29T15:08:53.457Z,100823.00
2022-10-29T15:11:40.402Z,100819.53
2022-10-29T15:16:59.768Z,100818.13
2022-10-29T15:19:27.414Z,100831.97
2022-10-29T15:21:54.853Z,100833.66
2022-10-29T15:24:24.643Z,100750.38
2022-10-29T15:26:59.646Z,100820.78
2022-10-29T15:29:34.750Z,100837.19
2022-10-29T15:32:02.860Z,100849.38
2022-10-29T15:34:37.427Z,100840.75
2022-10-29T15:37:19.705Z,100840.78
2022-10-29T15:40:02.676Z,100831.25
2022-10-29T15:42:32.995Z,100825.22
2022-10-29T15:45:09.494Z,100828.78
2022-10-29T15:47:38.584Z,100834.00
2022-10-29T15:50:07.874Z,100840.16
2022-10-29T15:52:59.685Z,100828.06
2022-10-29T15:55:34.825Z,100847.16
2022-10-29T15:58:13.537Z,100839.34
2022-10-29T16:00:41.197Z,100810.16
2022-10-29T16:03:14.205Z,100842.91
2022-10-29T16:05:43.184Z,100836.84
2022-10-29T16:08:33.584Z,100836.06
2022-10-29T16:11:01.765Z,100836.19
2022-10-29T16:13:30.915Z,100791.47
2022-10-29T16:18:25.277Z,100832.91
2022-10-29T16:20:58.706Z,100788.34
2022-10-29T16:23:25.836Z,100848.44
2022-10-29T16:25:52.987Z,100819.22
2022-10-29T16:28:20.140Z,100845.81
2022-10-29T16:30:53.384Z,100839.78
2022-10-29T16:33:20.735Z,100831.19
2022-10-29T16:35:47.921Z,100832.91
2022-10-29T16:38:17.042Z,100825.19
2022-10-29T16:40:44.722Z,100830.28
2022-10-29T16:45:58.496Z,100828.63
2022-10-29T16:48:28.446Z,100827.75
2022-10-29T16:50:55.741Z,100829.63
2022-10-29T16:53:22.946Z,100831.38
2022-10-29T16:55:50.115Z,100831.50
2022-10-29T16:58:18.356Z,100831.50
2022-10-29T17:03:30.275Z,100828.16
2022-10-29T17:06:07.233Z,100823.91
2022-10-29T17:11:19.601Z,100819.66
2022-10-29T17:13:46.909Z,100754.50
2022-10-29T17:16:19.161Z,100824.09
2022-10-29T17:18:50.874Z,100812.16
2022-10-29T17:21:18.572Z,100841.31
2022-10-29T17:26:30.362Z,100831.81
2022-10-29T17:28:57.507Z,100833.56
2022-10-29T17:31:26.041Z,100836.97
2022-10-29T17:33:53.548Z,100833.56
2022-10-29T17:36:21.163Z,100838.72
2022-10-29T17:38:48.473Z,100845.69
2022-10-29T17:41:15.633Z,100844.81
2022-10-29T17:46:27.613Z,100795.66
2022-10-29T17:48:56.515Z,100829.22
2022-10-29T17:51:24.459Z,100826.59
2022-10-29T17:53:51.616Z,100833.56
2022-10-29T17:56:18.722Z,100819.81
2022-10-29T17:58:45.962Z,100821.56
2022-10-29T18:01:13.400Z,100828.47
2022-10-29T18:06:25.417Z,100841.47
2022-10-29T18:08:52.737Z,100850.16
2022-10-29T18:11:22.123Z,100797.78
2022-10-29T18:16:35.123Z,100863.13
2022-10-29T18:19:03.880Z,100844.31
2022-10-29T18:21:32.032Z,100875.28
2022-10-29T18:23:59.111Z,100869.28
2022-10-29T18:26:33.247Z,100882.22
2022-10-29T18:29:08.737Z,100880.53
2022-10-29T18:31:37.818Z,100879.72
2022-10-29T18:34:07.929Z,100871.94
2022-10-29T18:36:39.186Z,100876.31
2022-10-29T18:39:06.750Z,100872.06
2022-10-29T18:41:34.910Z,100852.28
2022-10-29T18:44:02.572Z,100858.28
2022-10-29T18:46:29.757Z,100877.34
2022-10-29T18:48:56.925Z,100884.28
2022-10-29T18:51:26.906Z,100889.41
2022-10-29T18:53:55.781Z,100885.94
2022-10-29T18:56:24.131Z,100800.72
2022-10-29T19:01:37.340Z,100869.47
2022-10-29T19:04:07.565Z,100857.44
2022-10-29T19:06:36.679Z,100866.00
2022-10-29T19:09:07.554Z,100835.94
2022-10-29T19:14:19.963Z,100850.50
2022-10-29T19:16:47.162Z,100860.75
2022-10-29T19:19:16.130Z,100859.91
2022-10-29T19:21:45.787Z,100852.97
2022-10-29T19:24:15.142Z,100847.75
2022-10-29T19:26:42.883Z,100852.97
2022-10-29T19:29:10.590Z,100849.56
2022-10-29T19:31:37.826Z,100858.16
2022-10-29T19:34:07.488Z,100849.47
2022-10-29T19:36:36.625Z,100835.66
2022-10-29T19:39:04.744Z,100799.53
2022-10-29T19:41:33.152Z,100833.06
2022-10-29T19:44:01.607Z,100839.09
2022-10-29T19:46:29.828Z,100840.91
2022-10-29T19:48:58.806Z,100846.06
2022-10-29T19:51:26.774Z,100835.69
2022-10-29T19:53:54.194Z,100841.69
2022-10-29T19:56:22.194Z,100848.66
2022-10-29T19:58:49.380Z,100840.84
2022-10-29T20:01:18.237Z,100851.25
2022-10-29T20:03:46.694Z,100809.09
2022-10-29T20:06:14.904Z,100847.75
2022-10-29T20:08:42.085Z,100846.00
2022-10-29T20:11:09.560Z,100834.00
2022-10-29T20:13:37.165Z,100849.59
2022-10-29T20:16:12.225Z,100858.25
2022-10-29T20:21:24.249Z,100878.25
2022-10-29T20:23:51.333Z,100867.03
2022-10-29T20:26:18.652Z,100865.28
2022-10-29T20:28:45.859Z,100860.13
2022-10-29T20:31:37.212Z,100852.38
2022-10-29T20:34:09.513Z,100858.38
2022-10-29T20:36:36.914Z,100817.13
2022-10-29T20:39:04.260Z,100849.78
2022-10-29T20:41:31.715Z,100833.41
2022-10-29T20:44:01.828Z,100846.31
2022-10-29T20:46:29.652Z,100846.38
2022-10-29T20:48:57.072Z,100846.31
2022-10-29T20:51:24.725Z,100848.91
2022-10-29T20:53:53.333Z,100863.63
2022-10-29T20:56:22.393Z,100854.94
2022-10-29T20:58:49.424Z,100827.31
2022-10-29T21:01:19.225Z,100842.81
2022-10-29T21:03:49.394Z,100849.78
2022-10-29T21:06:17.756Z,100844.56
2022-10-29T21:08:50.182Z,100846.28
2022-10-29T21:11:19.410Z,100841.09
2022-10-29T21:13:46.958Z,100840.22
2022-10-29T21:19:09.334Z,100823.91
2022-10-29T21:21:36.810Z,100798.94
2022-10-29T21:24:04.232Z,100833.31
2022-10-29T21:26:31.384Z,100829.03
2022-10-29T21:28:58.774Z,100812.56
2022-10-29T21:31:26.144Z,100823.75
2022-10-29T21:33:54.340Z,100828.94
2022-10-29T21:39:07.011Z,100841.03
2022-10-29T21:41:34.057Z,100816.03
2022-10-29T21:44:01.145Z,100725.69
2022-10-29T21:46:28.309Z,100819.41
2022-10-29T21:48:56.783Z,100817.69
2022-10-29T21:51:23.970Z,100825.44
2022-10-29T21:53:51.077Z,100828.94
2022-10-29T21:56:18.472Z,100818.69
2022-10-29T21:58:45.847Z,100829.88
2022-10-29T22:01:16.932Z,100841.13
2022-10-29T22:03:46.040Z,100808.41
2022-10-29T22:06:21.626Z,100813.53
2022-10-29T22:08:57.033Z,100765.25
2022-10-29T22:11:27.197Z,100818.63
2022-10-29T22:13:54.718Z,100807.38
2022-10-29T22:16:23.393Z,100801.34
2022-10-29T22:18:51.236Z,100803.09
2022-10-29T22:21:21.426Z,100803.09
2022-10-29T22:23:50.887Z,100812.59
2022-10-29T22:26:20.470Z,100813.47
2022-10-29T22:28:48.207Z,100806.56
2022-10-29T22:31:16.527Z,100826.47
2022-10-29T22:33:45.048Z,100812.59
2022-10-29T22:36:17.099Z,100813.47
2022-10-29T22:38:45.034Z,100815.19
2022-10-29T22:41:17.707Z,100773.88
2022-10-29T22:43:45.511Z,100804.81
2022-10-29T22:46:14.910Z,100809.97
2022-10-29T22:48:43.815Z,100802.19
2022-10-29T22:51:15.376Z,100801.34
2022-10-29T22:53:43.589Z,100805.72
2022-10-29T22:56:18.689Z,100808.28
2022-10-29T23:01:37.359Z,100772.19
2022-10-29T23:04:07.532Z,100800.66
2022-10-29T23:06:34.661Z,100804.06
2022-10-29T23:09:02.071Z,100818.72
2022-10-29T23:11:31.281Z,100822.13
2022-10-29T23:14:00.549Z,100785.13
2022-10-29T23:16:30.072Z,100821.28
2022-10-29T23:18:59.771Z,100800.53
2022-10-29T23:21:27.592Z,100814.31
2022-10-29T23:23:55.516Z,100804.88
2022-10-29T23:26:24.363Z,100777.31
2022-10-29T23:28:51.957Z,100789.41
2022-10-29T23:31:23.356Z,100765.28
2022-10-29T23:36:38.995Z,100818.72
2022-10-29T23:39:06.113Z,100834.22
2022-10-29T23:41:33.425Z,100789.38
2022-10-29T23:44:00.651Z,100816.88
2022-10-29T23:46:27.724Z,100816.03
2022-10-29T23:48:54.994Z,100745.53
2022-10-29T23:51:22.231Z,100818.63
2022-10-29T23:53:51.818Z,100813.47
2022-10-29T23:56:22.055Z,100810.97
2022-10-29T23:58:49.161Z,100822.13
